sensor_id;sensor_type;location;lat;lon;timestamp;P1;durP1;ratioP1;P2;durP2;ratioP2
26082;SDS011;13848;49.018;12.078;2023-05-07T00:01:30;6.93;;;3.80;;
26082;SDS011;13848;49.018;12.078;2023-05-07T00:06:42;4.85;;;3.70;;
26082;SDS011;13848;49.018;12.078;2023-05-07T00:09:08;5.25;;;3.35;;
26082;SDS011;13848;49.018;12.078;2023-05-07T00:11:37;6.72;;;3.45;;
26082;SDS011;13848;49.018;12.078;2023-05-07T00:14:03;4.10;;;3.30;;
26082;SDS011;13848;49.018;12.078;2023-05-07T00:16:29;5.28;;;3.20;;
26082;SDS011;13848;49.018;12.078;2023-05-07T00:19:04;7.65;;;3.25;;
26082;SDS011;13848;49.018;12.078;2023-05-07T00:21:34;7.75;;;3.47;;
26082;SDS011;13848;49.018;12.078;2023-05-07T00:24:06;4.38;;;2.72;;
26082;SDS011;13848;49.018;12.078;2023-05-07T00:26:33;4.03;;;3.20;;
26082;SDS011;13848;49.018;12.078;2023-05-07T00:29:02;3.25;;;2.88;;
26082;SDS011;13848;49.018;12.078;2023-05-07T00:31:30;4.38;;;2.90;;
26082;SDS011;13848;49.018;12.078;2023-05-07T00:33:57;7.30;;;3.60;;
26082;SDS011;13848;49.018;12.078;2023-05-07T00:36:23;6.85;;;3.50;;
26082;SDS011;13848;49.018;12.078;2023-05-07T00:38:53;5.53;;;3.03;;
26082;SDS011;13848;49.018;12.078;2023-05-07T00:41:22;4.65;;;3.00;;
26082;SDS011;13848;49.018;12.078;2023-05-07T00:43:48;4.05;;;3.03;;
26082;SDS011;13848;49.018;12.078;2023-05-07T00:46:16;4.82;;;2.38;;
26082;SDS011;13848;49.018;12.078;2023-05-07T00:48:42;3.15;;;2.47;;
26082;SDS011;13848;49.018;12.078;2023-05-07T00:51:19;4.47;;;2.80;;
26082;SDS011;13848;49.018;12.078;2023-05-07T00:53:49;3.25;;;2.88;;
26082;SDS011;13848;49.018;12.078;2023-05-07T00:56:20;6.13;;;2.67;;
26082;SDS011;13848;49.018;12.078;2023-05-07T00:58:51;3.88;;;2.92;;
26082;SDS011;13848;49.018;12.078;2023-05-07T01:01:24;4.25;;;3.13;;
26082;SDS011;13848;49.018;12.078;2023-05-07T01:04:02;5.40;;;2.90;;
26082;SDS011;13848;49.018;12.078;2023-05-07T01:06:28;4.15;;;2.72;;
26082;SDS011;13848;49.018;12.078;2023-05-07T01:08:55;3.55;;;2.60;;
26082;SDS011;13848;49.018;12.078;2023-05-07T01:11:25;3.88;;;2.90;;
26082;SDS011;13848;49.018;12.078;2023-05-07T01:13:52;6.22;;;2.95;;
26082;SDS011;13848;49.018;12.078;2023-05-07T01:16:18;2.60;;;2.38;;
26082;SDS011;13848;49.018;12.078;2023-05-07T01:18:47;3.03;;;2.50;;
26082;SDS011;13848;49.018;12.078;2023-05-07T01:21:14;3.65;;;2.33;;
26082;SDS011;13848;49.018;12.078;2023-05-07T01:23:44;3.58;;;2.60;;
26082;SDS011;13848;49.018;12.078;2023-05-07T01:26:16;2.80;;;2.60;;
26082;SDS011;13848;49.018;12.078;2023-05-07T01:28:45;4.53;;;2.90;;
26082;SDS011;13848;49.018;12.078;2023-05-07T01:31:11;3.50;;;2.55;;
26082;SDS011;13848;49.018;12.078;2023-05-07T01:33:40;2.72;;;2.30;;
26082;SDS011;13848;49.018;12.078;2023-05-07T01:36:08;4.45;;;2.42;;
26082;SDS011;13848;49.018;12.078;2023-05-07T01:38:36;6.78;;;2.90;;
26082;SDS011;13848;49.018;12.078;2023-05-07T01:41:06;3.60;;;2.40;;
26082;SDS011;13848;49.018;12.078;2023-05-07T01:43:33;4.70;;;2.75;;
26082;SDS011;13848;49.018;12.078;2023-05-07T01:45:59;4.28;;;2.40;;
26082;SDS011;13848;49.018;12.078;2023-05-07T01:48:27;7.47;;;2.85;;
26082;SDS011;13848;49.018;12.078;2023-05-07T01:51:04;2.63;;;2.42;;
26082;SDS011;13848;49.018;12.078;2023-05-07T01:53:39;4.63;;;2.70;;
26082;SDS011;13848;49.018;12.078;2023-05-07T01:56:08;2.83;;;2.40;;
26082;SDS011;13848;49.018;12.078;2023-05-07T01:58:36;3.78;;;3.05;;
26082;SDS011;13848;49.018;12.078;2023-05-07T02:01:04;4.35;;;2.72;;
26082;SDS011;13848;49.018;12.078;2023-05-07T02:03:30;3.78;;;2.67;;
26082;SDS011;13848;49.018;12.078;2023-05-07T02:05:57;6.97;;;3.20;;
26082;SDS011;13848;49.018;12.078;2023-05-07T02:08:25;3.20;;;2.47;;
26082;SDS011;13848;49.018;12.078;2023-05-07T02:10:51;3.30;;;2.47;;
26082;SDS011;13848;49.018;12.078;2023-05-07T02:13:19;3.38;;;2.83;;
26082;SDS011;13848;49.018;12.078;2023-05-07T02:15:45;3.78;;;3.35;;
26082;SDS011;13848;49.018;12.078;2023-05-07T02:18:12;4.28;;;2.92;;
26082;SDS011;13848;49.018;12.078;2023-05-07T02:20:39;6.70;;;3.20;;
26082;SDS011;13848;49.018;12.078;2023-05-07T02:23:06;3.42;;;2.90;;
26082;SDS011;13848;49.018;12.078;2023-05-07T02:25:37;3.85;;;2.92;;
26082;SDS011;13848;49.018;12.078;2023-05-07T02:28:03;3.83;;;3.17;;
26082;SDS011;13848;49.018;12.078;2023-05-07T02:30:31;4.88;;;3.25;;
26082;SDS011;13848;49.018;12.078;2023-05-07T02:32:59;4.35;;;3.45;;
26082;SDS011;13848;49.018;12.078;2023-05-07T02:35:26;4.75;;;3.20;;
26082;SDS011;13848;49.018;12.078;2023-05-07T02:37:52;6.78;;;3.42;;
26082;SDS011;13848;49.018;12.078;2023-05-07T02:40:18;6.32;;;3.47;;
26082;SDS011;13848;49.018;12.078;2023-05-07T02:42:45;7.05;;;3.47;;
26082;SDS011;13848;49.018;12.078;2023-05-07T02:45:14;3.30;;;3.00;;
26082;SDS011;13848;49.018;12.078;2023-05-07T02:47:48;4.05;;;3.20;;
26082;SDS011;13848;49.018;12.078;2023-05-07T02:50:14;3.30;;;3.00;;
26082;SDS011;13848;49.018;12.078;2023-05-07T02:52:42;4.47;;;3.30;;
26082;SDS011;13848;49.018;12.078;2023-05-07T02:55:09;6.10;;;3.72;;
26082;SDS011;13848;49.018;12.078;2023-05-07T02:57:35;3.72;;;3.30;;
26082;SDS011;13848;49.018;12.078;2023-05-07T03:00:09;4.70;;;3.40;;
26082;SDS011;13848;49.018;12.078;2023-05-07T03:02:43;4.88;;;3.50;;
26082;SDS011;13848;49.018;12.078;2023-05-07T03:05:11;3.90;;;3.50;;
26082;SDS011;13848;49.018;12.078;2023-05-07T03:07:38;4.18;;;3.38;;
26082;SDS011;13848;49.018;12.078;2023-05-07T03:10:04;5.70;;;3.17;;
26082;SDS011;13848;49.018;12.078;2023-05-07T03:12:31;5.80;;;3.85;;
26082;SDS011;13848;49.018;12.078;2023-05-07T03:14:57;5.25;;;3.22;;
26082;SDS011;13848;49.018;12.078;2023-05-07T03:17:26;4.45;;;3.85;;
26082;SDS011;13848;49.018;12.078;2023-05-07T03:19:57;6.70;;;3.92;;
26082;SDS011;13848;49.018;12.078;2023-05-07T03:22:26;7.57;;;4.88;;
26082;SDS011;13848;49.018;12.078;2023-05-07T03:24:53;6.50;;;4.10;;
26082;SDS011;13848;49.018;12.078;2023-05-07T03:27:19;5.88;;;4.35;;
26082;SDS011;13848;49.018;12.078;2023-05-07T03:29:50;4.60;;;4.00;;
26082;SDS011;13848;49.018;12.078;2023-05-07T03:32:17;4.93;;;3.90;;
26082;SDS011;13848;49.018;12.078;2023-05-07T03:34:43;7.28;;;4.30;;
26082;SDS011;13848;49.018;12.078;2023-05-07T03:37:09;10.98;;;4.38;;
26082;SDS011;13848;49.018;12.078;2023-05-07T03:39:37;6.38;;;4.50;;
26082;SDS011;13848;49.018;12.078;2023-05-07T03:42:06;6.88;;;4.68;;
26082;SDS011;13848;49.018;12.078;2023-05-07T03:44:33;5.13;;;4.40;;
26082;SDS011;13848;49.018;12.078;2023-05-07T03:47:02;6.05;;;4.30;;
26082;SDS011;13848;49.018;12.078;2023-05-07T03:49:32;6.45;;;4.30;;
26082;SDS011;13848;49.018;12.078;2023-05-07T03:51:58;7.07;;;4.65;;
26082;SDS011;13848;49.018;12.078;2023-05-07T03:54:25;6.85;;;4.30;;
26082;SDS011;13848;49.018;12.078;2023-05-07T03:56:52;5.90;;;4.25;;
26082;SDS011;13848;49.018;12.078;2023-05-07T03:59:19;5.65;;;3.92;;
26082;SDS011;13848;49.018;12.078;2023-05-07T04:01:45;4.28;;;3.88;;
26082;SDS011;13848;49.018;12.078;2023-05-07T04:04:16;5.45;;;4.25;;
26082;SDS011;13848;49.018;12.078;2023-05-07T04:06:42;5.50;;;3.92;;
26082;SDS011;13848;49.018;12.078;2023-05-07T04:09:11;8.57;;;4.32;;
26082;SDS011;13848;49.018;12.078;2023-05-07T04:11:38;6.70;;;4.25;;
26082;SDS011;13848;49.018;12.078;2023-05-07T04:14:14;5.10;;;4.20;;
26082;SDS011;13848;49.018;12.078;2023-05-07T04:16:44;9.27;;;4.72;;
26082;SDS011;13848;49.018;12.078;2023-05-07T04:19:11;6.35;;;4.50;;
26082;SDS011;13848;49.018;12.078;2023-05-07T04:21:37;7.15;;;5.10;;
26082;SDS011;13848;49.018;12.078;2023-05-07T04:24:07;12.27;;;4.97;;
26082;SDS011;13848;49.018;12.078;2023-05-07T04:26:38;7.68;;;5.20;;
26082;SDS011;13848;49.018;12.078;2023-05-07T04:29:09;6.28;;;4.97;;
26082;SDS011;13848;49.018;12.078;2023-05-07T04:31:42;5.97;;;5.07;;
26082;SDS011;13848;49.018;12.078;2023-05-07T04:36:43;8.35;;;4.88;;
26082;SDS011;13848;49.018;12.078;2023-05-07T04:39:10;6.25;;;5.30;;
26082;SDS011;13848;49.018;12.078;2023-05-07T04:41:36;5.93;;;5.18;;
26082;SDS011;13848;49.018;12.078;2023-05-07T04:44:02;6.25;;;5.20;;
26082;SDS011;13848;49.018;12.078;2023-05-07T04:46:30;8.35;;;6.22;;
26082;SDS011;13848;49.018;12.078;2023-05-07T04:48:56;6.90;;;5.70;;
26082;SDS011;13848;49.018;12.078;2023-05-07T04:51:23;8.10;;;5.53;;
26082;SDS011;13848;49.018;12.078;2023-05-07T04:53:49;7.00;;;5.57;;
26082;SDS011;13848;49.018;12.078;2023-05-07T04:56:15;9.35;;;6.22;;
26082;SDS011;13848;49.018;12.078;2023-05-07T04:58:42;8.25;;;6.28;;
26082;SDS011;13848;49.018;12.078;2023-05-07T05:01:11;7.50;;;6.05;;
26082;SDS011;13848;49.018;12.078;2023-05-07T05:03:39;8.82;;;6.57;;
26082;SDS011;13848;49.018;12.078;2023-05-07T05:06:07;9.63;;;6.72;;
26082;SDS011;13848;49.018;12.078;2023-05-07T05:08:33;8.90;;;6.47;;
26082;SDS011;13848;49.018;12.078;2023-05-07T05:11:00;9.15;;;6.65;;
26082;SDS011;13848;49.018;12.078;2023-05-07T05:13:27;9.30;;;6.68;;
26082;SDS011;13848;49.018;12.078;2023-05-07T05:15:55;8.05;;;6.00;;
26082;SDS011;13848;49.018;12.078;2023-05-07T05:18:26;6.90;;;6.20;;
26082;SDS011;13848;49.018;12.078;2023-05-07T05:20:54;8.25;;;6.28;;
26082;SDS011;13848;49.018;12.078;2023-05-07T05:23:22;7.88;;;6.47;;
26082;SDS011;13848;49.018;12.078;2023-05-07T05:25:55;6.75;;;5.93;;
26082;SDS011;13848;49.018;12.078;2023-05-07T05:28:21;10.57;;;6.32;;
26082;SDS011;13848;49.018;12.078;2023-05-07T05:30:50;8.10;;;5.85;;
26082;SDS011;13848;49.018;12.078;2023-05-07T05:33:19;8.55;;;6.75;;
26082;SDS011;13848;49.018;12.078;2023-05-07T05:35:49;7.13;;;5.57;;
26082;SDS011;13848;49.018;12.078;2023-05-07T05:38:20;8.95;;;6.75;;
26082;SDS011;13848;49.018;12.078;2023-05-07T05:40:51;7.90;;;5.57;;
26082;SDS011;13848;49.018;12.078;2023-05-07T05:43:17;8.38;;;5.97;;
26082;SDS011;13848;49.018;12.078;2023-05-07T05:45:49;8.25;;;6.10;;
26082;SDS011;13848;49.018;12.078;2023-05-07T05:48:16;10.23;;;6.30;;
26082;SDS011;13848;49.018;12.078;2023-05-07T05:50:44;10.38;;;5.85;;
26082;SDS011;13848;49.018;12.078;2023-05-07T05:53:16;8.68;;;6.07;;
26082;SDS011;13848;49.018;12.078;2023-05-07T05:55:44;7.07;;;6.00;;
26082;SDS011;13848;49.018;12.078;2023-05-07T05:58:10;7.88;;;6.00;;
26082;SDS011;13848;49.018;12.078;2023-05-07T06:00:39;7.95;;;6.32;;
26082;SDS011;13848;49.018;12.078;2023-05-07T06:03:05;10.07;;;6.35;;
26082;SDS011;13848;49.018;12.078;2023-05-07T06:05:32;7.57;;;5.70;;
26082;SDS011;13848;49.018;12.078;2023-05-07T06:08:00;6.80;;;5.65;;
26082;SDS011;13848;49.018;12.078;2023-05-07T06:10:31;9.18;;;5.78;;
26082;SDS011;13848;49.018;12.078;2023-05-07T06:13:00;7.50;;;6.18;;
26082;SDS011;13848;49.018;12.078;2023-05-07T06:15:26;7.85;;;6.07;;
26082;SDS011;13848;49.018;12.078;2023-05-07T06:17:56;7.10;;;5.60;;
26082;SDS011;13848;49.018;12.078;2023-05-07T06:20:25;9.30;;;5.80;;
26082;SDS011;13848;49.018;12.078;2023-05-07T06:22:51;7.90;;;5.50;;
26082;SDS011;13848;49.018;12.078;2023-05-07T06:25:17;7.07;;;5.90;;
26082;SDS011;13848;49.018;12.078;2023-05-07T06:27:45;8.57;;;5.65;;
26082;SDS011;13848;49.018;12.078;2023-05-07T06:30:12;6.68;;;5.70;;
26082;SDS011;13848;49.018;12.078;2023-05-07T06:32:41;6.20;;;5.35;;
26082;SDS011;13848;49.018;12.078;2023-05-07T06:35:08;7.55;;;5.68;;
26082;SDS011;13848;49.018;12.078;2023-05-07T06:37:34;7.97;;;5.18;;
26082;SDS011;13848;49.018;12.078;2023-05-07T06:40:00;7.38;;;6.07;;
26082;SDS011;13848;49.018;12.078;2023-05-07T06:42:29;7.00;;;5.35;;
26082;SDS011;13848;49.018;12.078;2023-05-07T06:45:00;5.55;;;4.75;;
26082;SDS011;13848;49.018;12.078;2023-05-07T06:47:26;9.40;;;5.30;;
26082;SDS011;13848;49.018;12.078;2023-05-07T06:49:57;6.18;;;4.95;;
26082;SDS011;13848;49.018;12.078;2023-05-07T06:52:24;6.65;;;5.10;;
26082;SDS011;13848;49.018;12.078;2023-05-07T06:54:53;6.47;;;5.15;;
26082;SDS011;13848;49.018;12.078;2023-05-07T06:57:19;6.70;;;5.18;;
26082;SDS011;13848;49.018;12.078;2023-05-07T06:59:46;6.15;;;4.93;;
26082;SDS011;13848;49.018;12.078;2023-05-07T07:02:14;10.38;;;4.97;;
26082;SDS011;13848;49.018;12.078;2023-05-07T07:04:43;5.40;;;4.90;;
26082;SDS011;13848;49.018;12.078;2023-05-07T07:07:14;7.73;;;4.90;;
26082;SDS011;13848;49.018;12.078;2023-05-07T07:09:40;7.78;;;5.03;;
26082;SDS011;13848;49.018;12.078;2023-05-07T07:12:06;7.07;;;5.13;;
26082;SDS011;13848;49.018;12.078;2023-05-07T07:14:32;7.03;;;5.30;;
26082;SDS011;13848;49.018;12.078;2023-05-07T07:16:59;7.93;;;5.38;;
26082;SDS011;13848;49.018;12.078;2023-05-07T07:19:30;6.88;;;5.57;;
26082;SDS011;13848;49.018;12.078;2023-05-07T07:22:00;6.15;;;5.30;;
26082;SDS011;13848;49.018;12.078;2023-05-07T07:24:26;7.30;;;5.03;;
26082;SDS011;13848;49.018;12.078;2023-05-07T07:26:52;6.43;;;5.22;;
26082;SDS011;13848;49.018;12.078;2023-05-07T07:29:18;8.32;;;5.28;;
26082;SDS011;13848;49.018;12.078;2023-05-07T07:31:47;6.38;;;5.20;;
26082;SDS011;13848;49.018;12.078;2023-05-07T07:34:14;5.45;;;4.78;;
26082;SDS011;13848;49.018;12.078;2023-05-07T07:36:48;5.68;;;4.93;;
26082;SDS011;13848;49.018;12.078;2023-05-07T07:39:14;6.97;;;5.25;;
26082;SDS011;13848;49.018;12.078;2023-05-07T07:41:40;5.97;;;4.80;;
26082;SDS011;13848;49.018;12.078;2023-05-07T07:44:07;6.30;;;4.93;;
26082;SDS011;13848;49.018;12.078;2023-05-07T07:46:38;6.47;;;5.03;;
26082;SDS011;13848;49.018;12.078;2023-05-07T07:49:07;6.82;;;4.68;;
26082;SDS011;13848;49.018;12.078;2023-05-07T07:51:36;6.35;;;5.13;;
26082;SDS011;13848;49.018;12.078;2023-05-07T07:54:06;8.40;;;4.90;;
26082;SDS011;13848;49.018;12.078;2023-05-07T07:56:32;6.63;;;5.10;;
26082;SDS011;13848;49.018;12.078;2023-05-07T07:58:59;7.20;;;4.65;;
26082;SDS011;13848;49.018;12.078;2023-05-07T08:01:25;9.85;;;4.90;;
26082;SDS011;13848;49.018;12.078;2023-05-07T08:03:51;8.57;;;5.57;;
26082;SDS011;13848;49.018;12.078;2023-05-07T08:06:18;7.63;;;4.68;;
26082;SDS011;13848;49.018;12.078;2023-05-07T08:08:47;6.25;;;4.95;;
26082;SDS011;13848;49.018;12.078;2023-05-07T08:11:17;6.00;;;4.80;;
26082;SDS011;13848;49.018;12.078;2023-05-07T08:13:45;6.65;;;4.80;;
26082;SDS011;13848;49.018;12.078;2023-05-07T08:16:12;5.07;;;4.50;;
26082;SDS011;13848;49.018;12.078;2023-05-07T08:18:38;6.50;;;5.32;;
26082;SDS011;13848;49.018;12.078;2023-05-07T08:21:05;7.25;;;5.00;;
26082;SDS011;13848;49.018;12.078;2023-05-07T08:23:31;4.93;;;4.43;;
26082;SDS011;13848;49.018;12.078;2023-05-07T08:25:57;5.30;;;4.60;;
26082;SDS011;13848;49.018;12.078;2023-05-07T08:28:31;6.53;;;4.45;;
26082;SDS011;13848;49.018;12.078;2023-05-07T08:30:57;6.20;;;5.05;;
26082;SDS011;13848;49.018;12.078;2023-05-07T08:33:26;6.53;;;4.93;;
26082;SDS011;13848;49.018;12.078;2023-05-07T08:38:21;13.60;;;4.93;;
26082;SDS011;13848;49.018;12.078;2023-05-07T08:40:50;6.70;;;4.28;;
26082;SDS011;13848;49.018;12.078;2023-05-07T08:43:19;6.20;;;4.60;;
26082;SDS011;13848;49.018;12.078;2023-05-07T08:45:49;7.15;;;4.07;;
26082;SDS011;13848;49.018;12.078;2023-05-07T08:48:19;7.53;;;4.65;;
26082;SDS011;13848;49.018;12.078;2023-05-07T08:50:50;8.30;;;4.50;;
26082;SDS011;13848;49.018;12.078;2023-05-07T08:53:21;4.15;;;3.33;;
26082;SDS011;13848;49.018;12.078;2023-05-07T08:55:51;5.93;;;3.88;;
26082;SDS011;13848;49.018;12.078;2023-05-07T08:58:18;5.75;;;4.80;;
26082;SDS011;13848;49.018;12.078;2023-05-07T09:00:44;8.05;;;4.57;;
26082;SDS011;13848;49.018;12.078;2023-05-07T09:03:13;7.13;;;4.85;;
26082;SDS011;13848;49.018;12.078;2023-05-07T09:05:40;6.15;;;4.40;;
26082;SDS011;13848;49.018;12.078;2023-05-07T09:08:09;4.97;;;3.55;;
26082;SDS011;13848;49.018;12.078;2023-05-07T09:10:40;6.25;;;4.20;;
26082;SDS011;13848;49.018;12.078;2023-05-07T09:13:06;5.97;;;4.32;;
26082;SDS011;13848;49.018;12.078;2023-05-07T09:15:32;5.78;;;4.20;;
26082;SDS011;13848;49.018;12.078;2023-05-07T09:18:01;5.75;;;4.45;;
26082;SDS011;13848;49.018;12.078;2023-05-07T09:20:32;5.57;;;4.80;;
26082;SDS011;13848;49.018;12.078;2023-05-07T09:22:58;7.00;;;4.90;;
26082;SDS011;13848;49.018;12.078;2023-05-07T09:25:28;8.80;;;6.53;;
26082;SDS011;13848;49.018;12.078;2023-05-07T09:27:58;5.38;;;4.10;;
26082;SDS011;13848;49.018;12.078;2023-05-07T09:30:27;4.57;;;4.13;;
26082;SDS011;13848;49.018;12.078;2023-05-07T09:32:53;4.90;;;4.40;;
26082;SDS011;13848;49.018;12.078;2023-05-07T09:35:21;7.82;;;4.65;;
26082;SDS011;13848;49.018;12.078;2023-05-07T09:37:52;5.03;;;4.18;;
26082;SDS011;13848;49.018;12.078;2023-05-07T09:40:23;5.80;;;4.20;;
26082;SDS011;13848;49.018;12.078;2023-05-07T09:42:54;6.80;;;4.30;;
26082;SDS011;13848;49.018;12.078;2023-05-07T09:45:24;8.15;;;4.20;;
26082;SDS011;13848;49.018;12.078;2023-05-07T09:47:57;4.70;;;4.20;;
26082;SDS011;13848;49.018;12.078;2023-05-07T09:50:26;9.88;;;4.30;;
26082;SDS011;13848;49.018;12.078;2023-05-07T09:52:55;6.22;;;4.32;;
26082;SDS011;13848;49.018;12.078;2023-05-07T09:55:22;4.93;;;3.97;;
26082;SDS011;13848;49.018;12.078;2023-05-07T09:57:52;8.25;;;4.32;;
26082;SDS011;13848;49.018;12.078;2023-05-07T10:00:19;5.60;;;4.30;;
26082;SDS011;13848;49.018;12.078;2023-05-07T10:02:58;6.88;;;4.55;;
26082;SDS011;13848;49.018;12.078;2023-05-07T10:05:27;6.32;;;4.07;;
26082;SDS011;13848;49.018;12.078;2023-05-07T10:07:55;5.90;;;3.90;;
26082;SDS011;13848;49.018;12.078;2023-05-07T10:10:23;5.32;;;4.10;;
26082;SDS011;13848;49.018;12.078;2023-05-07T10:12:59;4.70;;;4.07;;
26082;SDS011;13848;49.018;12.078;2023-05-07T10:15:30;5.30;;;4.10;;
26082;SDS011;13848;49.018;12.078;2023-05-07T10:18:00;6.75;;;4.10;;
26082;SDS011;13848;49.018;12.078;2023-05-07T10:20:28;5.88;;;4.60;;
26082;SDS011;13848;49.018;12.078;2023-05-07T10:22:59;8.05;;;4.70;;
26082;SDS011;13848;49.018;12.078;2023-05-07T10:25:30;4.93;;;4.43;;
26082;SDS011;13848;49.018;12.078;2023-05-07T10:27:57;5.35;;;4.85;;
26082;SDS011;13848;49.018;12.078;2023-05-07T10:30:29;7.05;;;4.70;;
26082;SDS011;13848;49.018;12.078;2023-05-07T10:33:06;6.82;;;5.10;;
26082;SDS011;13848;49.018;12.078;2023-05-07T10:35:39;5.68;;;4.38;;
26082;SDS011;13848;49.018;12.078;2023-05-07T10:38:22;5.85;;;4.53;;
26082;SDS011;13848;49.018;12.078;2023-05-07T10:40:53;5.63;;;4.97;;
26082;SDS011;13848;49.018;12.078;2023-05-07T10:43:19;5.55;;;4.38;;
26082;SDS011;13848;49.018;12.078;2023-05-07T10:51:37;7.75;;;4.88;;
26082;SDS011;13848;49.018;12.078;2023-05-07T10:54:23;7.25;;;5.45;;
26082;SDS011;13848;49.018;12.078;2023-05-07T10:56:52;8.43;;;4.95;;
26082;SDS011;13848;49.018;12.078;2023-05-07T10:59:34;5.30;;;4.53;;
26082;SDS011;13848;49.018;12.078;2023-05-07T11:02:02;6.93;;;3.90;;
26082;SDS011;13848;49.018;12.078;2023-05-07T11:04:32;5.50;;;4.63;;
26082;SDS011;13848;49.018;12.078;2023-05-07T11:10:02;5.40;;;4.03;;
26082;SDS011;13848;49.018;12.078;2023-05-07T11:12:53;4.85;;;4.15;;
26082;SDS011;13848;49.018;12.078;2023-05-07T11:15:35;4.00;;;3.63;;
26082;SDS011;13848;49.018;12.078;2023-05-07T11:18:09;5.28;;;3.90;;
26082;SDS011;13848;49.018;12.078;2023-05-07T11:26:24;4.53;;;3.80;;
26082;SDS011;13848;49.018;12.078;2023-05-07T11:29:10;4.55;;;3.80;;
26082;SDS011;13848;49.018;12.078;2023-05-07T11:31:37;6.10;;;3.53;;
26082;SDS011;13848;49.018;12.078;2023-05-07T11:34:03;6.07;;;3.95;;
26082;SDS011;13848;49.018;12.078;2023-05-07T11:36:33;5.55;;;3.83;;
26082;SDS011;13848;49.018;12.078;2023-05-07T11:38:59;5.40;;;4.20;;
26082;SDS011;13848;49.018;12.078;2023-05-07T11:41:34;4.30;;;3.90;;
26082;SDS011;13848;49.018;12.078;2023-05-07T11:44:01;5.88;;;3.90;;
26082;SDS011;13848;49.018;12.078;2023-05-07T11:46:29;4.28;;;3.78;;
26082;SDS011;13848;49.018;12.078;2023-05-07T11:48:56;4.78;;;3.90;;
26082;SDS011;13848;49.018;12.078;2023-05-07T11:51:25;8.25;;;4.10;;
26082;SDS011;13848;49.018;12.078;2023-05-07T11:53:54;5.07;;;4.20;;
26082;SDS011;13848;49.018;12.078;2023-05-07T11:56:23;5.03;;;4.10;;
26082;SDS011;13848;49.018;12.078;2023-05-07T11:58:51;5.80;;;4.10;;
26082;SDS011;13848;49.018;12.078;2023-05-07T12:01:26;9.48;;;4.22;;
26082;SDS011;13848;49.018;12.078;2023-05-07T12:04:02;4.53;;;4.07;;
26082;SDS011;13848;49.018;12.078;2023-05-07T12:06:35;4.22;;;3.72;;
26082;SDS011;13848;49.018;12.078;2023-05-07T12:09:03;4.35;;;3.70;;
26082;SDS011;13848;49.018;12.078;2023-05-07T12:11:35;5.63;;;4.00;;
26082;SDS011;13848;49.018;12.078;2023-05-07T12:16:34;4.65;;;3.70;;
26082;SDS011;13848;49.018;12.078;2023-05-07T12:19:03;4.13;;;3.35;;
26082;SDS011;13848;49.018;12.078;2023-05-07T12:21:30;6.18;;;3.67;;
26082;SDS011;13848;49.018;12.078;2023-05-07T12:23:59;6.13;;;3.35;;
26082;SDS011;13848;49.018;12.078;2023-05-07T12:26:27;4.15;;;3.60;;
26082;SDS011;13848;49.018;12.078;2023-05-07T12:28:53;3.95;;;3.50;;
26082;SDS011;13848;49.018;12.078;2023-05-07T12:31:23;3.75;;;3.05;;
26082;SDS011;13848;49.018;12.078;2023-05-07T12:33:53;9.02;;;2.97;;
26082;SDS011;13848;49.018;12.078;2023-05-07T12:36:25;4.57;;;2.95;;
26082;SDS011;13848;49.018;12.078;2023-05-07T12:38:54;3.67;;;3.20;;
26082;SDS011;13848;49.018;12.078;2023-05-07T12:41:27;5.88;;;3.08;;
26082;SDS011;13848;49.018;12.078;2023-05-07T12:43:58;5.45;;;3.45;;
26082;SDS011;13848;49.018;12.078;2023-05-07T12:46:31;3.55;;;3.05;;
26082;SDS011;13848;49.018;12.078;2023-05-07T12:48:57;3.28;;;2.72;;
26082;SDS011;13848;49.018;12.078;2023-05-07T12:51:26;4.50;;;3.13;;
26082;SDS011;13848;49.018;12.078;2023-05-07T12:54:05;4.57;;;3.03;;
26082;SDS011;13848;49.018;12.078;2023-05-07T12:56:35;3.35;;;2.72;;
26082;SDS011;13848;49.018;12.078;2023-05-07T12:59:05;4.82;;;3.20;;
26082;SDS011;13848;49.018;12.078;2023-05-07T13:01:41;3.30;;;3.00;;
26082;SDS011;13848;49.018;12.078;2023-05-07T13:04:21;4.55;;;3.50;;
26082;SDS011;13848;49.018;12.078;2023-05-07T13:06:50;3.63;;;2.75;;
26082;SDS011;13848;49.018;12.078;2023-05-07T13:09:21;7.60;;;2.92;;
26082;SDS011;13848;49.018;12.078;2023-05-07T13:11:53;4.20;;;3.10;;
26082;SDS011;13848;49.018;12.078;2023-05-07T13:14:19;4.05;;;3.03;;
26082;SDS011;13848;49.018;12.078;2023-05-07T13:16:50;3.10;;;2.58;;
26082;SDS011;13848;49.018;12.078;2023-05-07T13:19:19;4.82;;;3.00;;
26082;SDS011;13848;49.018;12.078;2023-05-07T13:21:48;3.88;;;2.80;;
26082;SDS011;13848;49.018;12.078;2023-05-07T13:24:20;4.38;;;2.65;;
26082;SDS011;13848;49.018;12.078;2023-05-07T13:26:49;5.03;;;2.80;;
26082;SDS011;13848;49.018;12.078;2023-05-07T13:29:18;3.17;;;2.72;;
26082;SDS011;13848;49.018;12.078;2023-05-07T13:31:47;4.28;;;3.25;;
26082;SDS011;13848;49.018;12.078;2023-05-07T13:34:26;3.55;;;3.03;;
26082;SDS011;13848;49.018;12.078;2023-05-07T13:37:03;2.60;;;2.40;;
26082;SDS011;13848;49.018;12.078;2023-05-07T13:39:32;6.15;;;3.90;;
26082;SDS011;13848;49.018;12.078;2023-05-07T13:41:59;3.45;;;2.90;;
26082;SDS011;13848;49.018;12.078;2023-05-07T13:44:31;3.95;;;3.05;;
26082;SDS011;13848;49.018;12.078;2023-05-07T13:47:03;3.72;;;2.90;;
26082;SDS011;13848;49.018;12.078;2023-05-07T13:49:39;4.05;;;2.70;;
26082;SDS011;13848;49.018;12.078;2023-05-07T13:52:08;2.95;;;2.63;;
26082;SDS011;13848;49.018;12.078;2023-05-07T13:54:34;3.80;;;2.80;;
26082;SDS011;13848;49.018;12.078;2023-05-07T13:57:00;4.43;;;2.97;;
26082;SDS011;13848;49.018;12.078;2023-05-07T13:59:29;5.63;;;3.35;;
26082;SDS011;13848;49.018;12.078;2023-05-07T14:01:58;3.00;;;2.40;;
26082;SDS011;13848;49.018;12.078;2023-05-07T14:04:32;2.97;;;2.40;;
26082;SDS011;13848;49.018;12.078;2023-05-07T14:07:06;2.72;;;2.20;;
26082;SDS011;13848;49.018;12.078;2023-05-07T14:09:43;2.45;;;2.10;;
26082;SDS011;13848;49.018;12.078;2023-05-07T14:12:13;3.83;;;2.10;;
26082;SDS011;13848;49.018;12.078;2023-05-07T14:14:41;5.75;;;2.05;;
26082;SDS011;13848;49.018;12.078;2023-05-07T14:17:18;2.85;;;2.35;;
26082;SDS011;13848;49.018;12.078;2023-05-07T14:19:49;4.90;;;1.98;;
26082;SDS011;13848;49.018;12.078;2023-05-07T14:22:27;3.95;;;2.38;;
26082;SDS011;13848;49.018;12.078;2023-05-07T14:24:59;4.32;;;3.00;;
26082;SDS011;13848;49.018;12.078;2023-05-07T14:27:28;3.67;;;2.72;;
26082;SDS011;13848;49.018;12.078;2023-05-07T14:29:57;2.80;;;2.30;;
26082;SDS011;13848;49.018;12.078;2023-05-07T14:32:29;3.30;;;2.20;;
26082;SDS011;13848;49.018;12.078;2023-05-07T14:35:15;2.70;;;2.25;;
26082;SDS011;13848;49.018;12.078;2023-05-07T14:37:42;4.05;;;2.53;;
26082;SDS011;13848;49.018;12.078;2023-05-07T14:40:13;3.70;;;2.22;;
26082;SDS011;13848;49.018;12.078;2023-05-07T14:42:39;3.00;;;2.35;;
26082;SDS011;13848;49.018;12.078;2023-05-07T14:45:13;3.22;;;2.45;;
26082;SDS011;13848;49.018;12.078;2023-05-07T14:47:40;3.63;;;2.30;;
26082;SDS011;13848;49.018;12.078;2023-05-07T14:50:12;2.45;;;2.25;;
26082;SDS011;13848;49.018;12.078;2023-05-07T14:52:42;2.65;;;2.40;;
26082;SDS011;13848;49.018;12.078;2023-05-07T14:55:09;3.67;;;2.42;;
26082;SDS011;13848;49.018;12.078;2023-05-07T14:57:42;2.58;;;2.35;;
26082;SDS011;13848;49.018;12.078;2023-05-07T15:02:40;4.55;;;2.90;;
26082;SDS011;13848;49.018;12.078;2023-05-07T15:05:18;3.38;;;2.70;;
26082;SDS011;13848;49.018;12.078;2023-05-07T15:07:45;4.45;;;2.92;;
26082;SDS011;13848;49.018;12.078;2023-05-07T15:10:14;12.18;;;3.50;;
26082;SDS011;13848;49.018;12.078;2023-05-07T15:12:45;6.68;;;3.60;;